DAL1241 KATL-KRDU
Flight info
| Callsign | DAL1241 |
|---|---|
| Flight time | 1h 0m |
| Altitude | 33000 |
| Route | GAIRY2 IRQ PYRES DMSTR2 |
| Aircraft | A320/M-SDE3FGHIRWY/LB1 |
Departure
| Time | 2026-05-07 01:15 |
|---|---|
| Airport | Hartsfield Jackson Atlanta International Airport (KATL) |
Arrival
| Time | 2026-05-07 02:15 |
|---|---|
| Airport | Raleigh-Durham International Airport (KRDU) |
| Time | Latitude | Longitude | Altitude | Speed | Heading |
|---|---|---|---|---|---|
| 2026-05-07 00:59 | 33.63834 | -84.43644 | 1006 ft | 0 kts | 90° |
| 2026-05-07 01:06 | 33.63834 | -84.43653 | 1006 ft | 2 kts | 90° |
| 2026-05-07 01:06 | 33.63834 | -84.43674 | 1006 ft | 2 kts | 90° |
| 2026-05-07 01:07 | 33.63837 | -84.43694 | 1006 ft | 2 kts | 145° |
| 2026-05-07 01:07 | 33.63844 | -84.43699 | 1006 ft | 0 kts | 175° |
| 2026-05-07 01:09 | 33.63818 | -84.43701 | 1016 ft | 6 kts | 189° |
| 2026-05-07 01:09 | 33.63759 | -84.43721 | 1006 ft | 11 kts | 189° |
| 2026-05-07 01:10 | 33.63680 | -84.43696 | 1006 ft | 13 kts | 137° |
| 2026-05-07 01:10 | 33.63664 | -84.43602 | 1006 ft | 11 kts | 91° |
| 2026-05-07 01:10 | 33.63664 | -84.43517 | 1006 ft | 10 kts | 90° |
| 2026-05-07 01:10 | 33.63665 | -84.43409 | 1006 ft | 23 kts | 90° |
| 2026-05-07 01:11 | 33.63663 | -84.43192 | 1006 ft | 27 kts | 91° |
| 2026-05-07 01:11 | 33.63664 | -84.42964 | 1006 ft | 28 kts | 89° |
| 2026-05-07 01:11 | 33.63660 | -84.42733 | 1006 ft | 28 kts | 97° |
| 2026-05-07 01:11 | 33.63655 | -84.42500 | 1007 ft | 28 kts | 90° |
| 2026-05-07 01:12 | 33.63655 | -84.42259 | 1007 ft | 29 kts | 90° |
| 2026-05-07 01:12 | 33.63655 | -84.42014 | 1006 ft | 30 kts | 90° |
| 2026-05-07 01:12 | 33.63654 | -84.41757 | 1006 ft | 31 kts | 90° |
| 2026-05-07 01:12 | 33.63654 | -84.41495 | 1006 ft | 32 kts | 90° |
| 2026-05-07 01:13 | 33.63655 | -84.41230 | 1006 ft | 31 kts | 90° |
| 2026-05-07 01:13 | 33.63655 | -84.40988 | 1005 ft | 24 kts | 91° |
| 2026-05-07 01:13 | 33.63591 | -84.40908 | 1006 ft | 11 kts | 175° |
| 2026-05-07 01:13 | 33.63515 | -84.40907 | 1007 ft | 11 kts | 180° |
| 2026-05-07 01:14 | 33.63471 | -84.40971 | 1007 ft | 8 kts | 269° |
| 2026-05-07 01:14 | 33.63471 | -84.40980 | 1007 ft | 0 kts | 269° |
| 2026-05-07 01:14 | 33.63471 | -84.41121 | 1005 ft | 53 kts | 269° |
| 2026-05-07 01:14 | 33.63471 | -84.41906 | 1007 ft | 132 kts | 270° |
| 2026-05-07 01:15 | 33.63478 | -84.43243 | 1150 ft | 175 kts | 269° |
| 2026-05-07 01:15 | 33.63483 | -84.44682 | 2031 ft | 171 kts | 266° |
| 2026-05-07 01:15 | 33.63474 | -84.46109 | 2919 ft | 171 kts | 265° |
| 2026-05-07 01:15 | 33.63368 | -84.47618 | 3173 ft | 192 kts | 250° |
| 2026-05-07 01:16 | 33.62747 | -84.49151 | 3395 ft | 218 kts | 240° |
| 2026-05-07 01:16 | 33.61998 | -84.50841 | 3839 ft | 238 kts | 241° |
| 2026-05-07 01:16 | 33.61230 | -84.52642 | 4584 ft | 246 kts | 242° |
| 2026-05-07 01:16 | 33.60990 | -84.53212 | 4851 ft | 246 kts | 243° |
| 2026-05-07 01:17 | 33.60220 | -84.55058 | 5648 ft | 249 kts | 243° |
| 2026-05-07 01:17 | 33.59413 | -84.56912 | 5923 ft | 252 kts | 236° |
| 2026-05-07 01:17 | 33.58081 | -84.58247 | 5997 ft | 256 kts | 204° |
| 2026-05-07 01:17 | 33.56296 | -84.58553 | 6000 ft | 263 kts | 186° |
| 2026-05-07 01:18 | 33.54448 | -84.58572 | 6576 ft | 267 kts | 184° |
| 2026-05-07 01:18 | 33.52584 | -84.58547 | 7387 ft | 269 kts | 184° |
| 2026-05-07 01:18 | 33.50698 | -84.58516 | 8175 ft | 272 kts | 185° |
| 2026-05-07 01:18 | 33.48794 | -84.58266 | 8962 ft | 284 kts | 168° |
| 2026-05-07 01:19 | 33.47040 | -84.57057 | 9681 ft | 303 kts | 141° |
| 2026-05-07 01:19 | 33.45875 | -84.54883 | 10276 ft | 326 kts | 112° |
| 2026-05-07 01:19 | 33.45552 | -84.52128 | 10786 ft | 341 kts | 95° |
| 2026-05-07 01:19 | 33.45504 | -84.49301 | 11411 ft | 347 kts | 92° |
| 2026-05-07 01:20 | 33.45522 | -84.46390 | 12062 ft | 352 kts | 92° |
| 2026-05-07 01:20 | 33.45562 | -84.43405 | 12731 ft | 357 kts | 92° |
| 2026-05-07 01:20 | 33.45594 | -84.40419 | 13378 ft | 361 kts | 92° |
| 2026-05-07 01:20 | 33.45608 | -84.37434 | 13871 ft | 366 kts | 93° |
| 2026-05-07 01:21 | 33.45606 | -84.34384 | 13992 ft | 366 kts | 92° |
| 2026-05-07 01:21 | 33.45780 | -84.31331 | 14029 ft | 368 kts | 87° |
| 2026-05-07 01:21 | 33.46024 | -84.28281 | 14020 ft | 368 kts | 86° |
| 2026-05-07 01:21 | 33.46264 | -84.25225 | 14093 ft | 370 kts | 87° |
| 2026-05-07 01:22 | 33.46504 | -84.22154 | 14685 ft | 372 kts | 86° |
| 2026-05-07 01:22 | 33.46747 | -84.19050 | 15274 ft | 376 kts | 86° |
| 2026-05-07 01:22 | 33.46992 | -84.15920 | 15851 ft | 379 kts | 85° |
| 2026-05-07 01:22 | 33.47241 | -84.12755 | 16424 ft | 383 kts | 85° |
| 2026-05-07 01:23 | 33.47493 | -84.09566 | 16982 ft | 387 kts | 85° |
| 2026-05-07 01:23 | 33.47747 | -84.06338 | 17507 ft | 391 kts | 84° |
| 2026-05-07 01:23 | 33.48002 | -84.03086 | 18074 ft | 395 kts | 84° |
| 2026-05-07 01:23 | 33.48259 | -83.99797 | 18564 ft | 399 kts | 84° |
| 2026-05-07 01:24 | 33.48518 | -83.96471 | 19028 ft | 402 kts | 84° |
| 2026-05-07 01:24 | 33.48778 | -83.93118 | 19483 ft | 407 kts | 84° |
| 2026-05-07 01:24 | 33.49043 | -83.89733 | 19940 ft | 411 kts | 84° |
| 2026-05-07 01:24 | 33.49308 | -83.86307 | 20414 ft | 414 kts | 84° |
| 2026-05-07 01:25 | 33.49572 | -83.82851 | 20870 ft | 418 kts | 83° |
| 2026-05-07 01:25 | 33.49834 | -83.79364 | 21337 ft | 422 kts | 83° |
| 2026-05-07 01:25 | 33.50095 | -83.75851 | 21792 ft | 426 kts | 83° |
| 2026-05-07 01:25 | 33.50358 | -83.72298 | 22248 ft | 430 kts | 83° |
| 2026-05-07 01:26 | 33.50624 | -83.68717 | 22692 ft | 433 kts | 83° |
| 2026-05-07 01:26 | 33.50893 | -83.65104 | 23129 ft | 437 kts | 83° |
| 2026-05-07 01:26 | 33.51214 | -83.61465 | 23561 ft | 441 kts | 80° |
| 2026-05-07 01:26 | 33.51660 | -83.57820 | 23942 ft | 443 kts | 78° |
| 2026-05-07 01:27 | 33.52184 | -83.54218 | 24321 ft | 446 kts | 77° |
| 2026-05-07 01:27 | 33.52756 | -83.50547 | 24692 ft | 450 kts | 76° |
| 2026-05-07 01:27 | 33.53339 | -83.46810 | 25095 ft | 452 kts | 77° |
| 2026-05-07 01:27 | 33.53890 | -83.43137 | 25485 ft | 455 kts | 77° |
| 2026-05-07 01:28 | 33.54425 | -83.39385 | 25890 ft | 458 kts | 78° |
| 2026-05-07 01:28 | 33.54944 | -83.35608 | 26289 ft | 460 kts | 78° |
| 2026-05-07 01:28 | 33.55455 | -83.31810 | 26681 ft | 463 kts | 78° |
| 2026-05-07 01:28 | 33.55967 | -83.27991 | 27070 ft | 466 kts | 78° |
| 2026-05-07 01:29 | 33.56481 | -83.24136 | 27449 ft | 468 kts | 78° |
| 2026-05-07 01:29 | 33.57000 | -83.20268 | 27826 ft | 471 kts | 78° |
| 2026-05-07 01:29 | 33.57528 | -83.16379 | 28205 ft | 473 kts | 78° |
| 2026-05-07 01:29 | 33.58063 | -83.12477 | 28589 ft | 474 kts | 78° |
| 2026-05-07 01:30 | 33.58598 | -83.08572 | 28913 ft | 476 kts | 78° |
| 2026-05-07 01:30 | 33.59665 | -83.00737 | 28973 ft | 476 kts | 78° |
| 2026-05-07 01:31 | 33.60709 | -82.92956 | 28975 ft | 475 kts | 78° |
| 2026-05-07 01:31 | 33.61762 | -82.85042 | 28984 ft | 476 kts | 78° |
| 2026-05-07 01:32 | 33.62789 | -82.77280 | 29012 ft | 476 kts | 78° |
| 2026-05-07 01:32 | 33.63828 | -82.69442 | 29024 ft | 475 kts | 78° |
| 2026-05-07 01:33 | 33.64864 | -82.61609 | 29024 ft | 475 kts | 78° |
| 2026-05-07 01:33 | 33.65893 | -82.53770 | 29028 ft | 475 kts | 78° |
| 2026-05-07 01:34 | 33.66479 | -82.49265 | 29001 ft | 476 kts | 78° |
| 2026-05-07 01:34 | 33.67493 | -82.41423 | 28978 ft | 478 kts | 78° |
| 2026-05-07 01:34 | 33.68011 | -82.37437 | 28981 ft | 489 kts | 78° |
| 2026-05-07 01:35 | 33.68545 | -82.33361 | 28990 ft | 499 kts | 78° |
| 2026-05-07 01:35 | 33.69638 | -82.24963 | 28990 ft | 518 kts | 79° |
| 2026-05-07 01:36 | 33.70788 | -82.16293 | 29013 ft | 532 kts | 75° |
| 2026-05-07 01:36 | 33.72874 | -82.07693 | 28998 ft | 541 kts | 70° |
| 2026-05-07 01:37 | 33.75063 | -81.99021 | 28996 ft | 543 kts | 70° |
| 2026-05-07 01:37 | 33.77260 | -81.90326 | 28990 ft | 543 kts | 70° |
| 2026-05-07 01:38 | 33.79457 | -81.81630 | 28991 ft | 543 kts | 70° |
| 2026-05-07 01:38 | 33.81670 | -81.72917 | 28987 ft | 546 kts | 67° |
| 2026-05-07 01:38 | 33.83294 | -81.68819 | 28988 ft | 541 kts | 56° |
| 2026-05-07 01:39 | 33.85149 | -81.64942 | 28969 ft | 542 kts | 56° |
| 2026-05-07 01:39 | 33.88917 | -81.57083 | 28985 ft | 542 kts | 56° |
| 2026-05-07 01:40 | 33.92684 | -81.49231 | 29009 ft | 542 kts | 56° |
| 2026-05-07 01:40 | 33.93060 | -81.48447 | 29003 ft | 542 kts | 56° |
| 2026-05-07 01:41 | 33.96612 | -81.40876 | 28150 ft | 532 kts | 56° |
| 2026-05-07 01:41 | 33.98448 | -81.37030 | 27387 ft | 527 kts | 56° |
| 2026-05-07 01:41 | 34.00286 | -81.33213 | 27079 ft | 526 kts | 55° |
| 2026-05-07 01:41 | 34.02122 | -81.29408 | 26918 ft | 524 kts | 55° |
| 2026-05-07 01:42 | 34.03951 | -81.25600 | 26978 ft | 524 kts | 56° |
| 2026-05-07 01:42 | 34.05765 | -81.21791 | 26969 ft | 524 kts | 56° |
| 2026-05-07 01:42 | 34.07571 | -81.17975 | 26974 ft | 524 kts | 56° |
| 2026-05-07 01:42 | 34.09372 | -81.14152 | 26973 ft | 524 kts | 56° |
| 2026-05-07 01:43 | 34.11173 | -81.10329 | 26981 ft | 524 kts | 56° |
| 2026-05-07 01:43 | 34.12977 | -81.06502 | 26980 ft | 524 kts | 56° |
| 2026-05-07 01:43 | 34.14776 | -81.02685 | 27014 ft | 524 kts | 56° |
| 2026-05-07 01:43 | 34.16580 | -80.98860 | 26974 ft | 523 kts | 57° |
| 2026-05-07 01:44 | 34.18379 | -80.95045 | 26984 ft | 523 kts | 57° |
| 2026-05-07 01:44 | 34.20182 | -80.91213 | 26981 ft | 523 kts | 57° |
| 2026-05-07 01:44 | 34.21952 | -80.87441 | 26984 ft | 522 kts | 57° |
| 2026-05-07 01:44 | 34.23742 | -80.83622 | 26983 ft | 522 kts | 57° |
| 2026-05-07 01:45 | 34.25532 | -80.79801 | 26984 ft | 522 kts | 57° |
| 2026-05-07 01:45 | 34.27321 | -80.75983 | 26848 ft | 521 kts | 57° |
| 2026-05-07 01:45 | 34.29110 | -80.72158 | 25751 ft | 524 kts | 57° |
| 2026-05-07 01:45 | 34.30854 | -80.68428 | 24860 ft | 523 kts | 56° |
| 2026-05-07 01:46 | 34.32641 | -80.64597 | 24321 ft | 522 kts | 56° |
| 2026-05-07 01:46 | 34.34417 | -80.60780 | 24091 ft | 521 kts | 56° |
| 2026-05-07 01:46 | 34.36196 | -80.56956 | 23936 ft | 520 kts | 56° |
| 2026-05-07 01:46 | 34.37976 | -80.53136 | 23991 ft | 521 kts | 56° |
| 2026-05-07 01:47 | 34.39755 | -80.49312 | 23980 ft | 521 kts | 56° |
| 2026-05-07 01:47 | 34.41529 | -80.45498 | 23986 ft | 521 kts | 56° |
| 2026-05-07 01:47 | 34.43307 | -80.41672 | 23987 ft | 521 kts | 56° |
| 2026-05-07 01:47 | 34.45082 | -80.37846 | 23992 ft | 521 kts | 57° |
| 2026-05-07 01:48 | 34.46855 | -80.34015 | 23995 ft | 521 kts | 57° |
| 2026-05-07 01:48 | 34.48626 | -80.30187 | 24002 ft | 521 kts | 57° |
| 2026-05-07 01:48 | 34.50393 | -80.26355 | 23999 ft | 521 kts | 57° |
| 2026-05-07 01:48 | 34.52157 | -80.22520 | 23996 ft | 521 kts | 57° |
| 2026-05-07 01:49 | 34.53899 | -80.18734 | 23994 ft | 521 kts | 57° |
| 2026-05-07 01:49 | 34.55665 | -80.14899 | 23988 ft | 520 kts | 57° |
| 2026-05-07 01:49 | 34.57423 | -80.11074 | 23989 ft | 518 kts | 57° |
| 2026-05-07 01:49 | 34.59201 | -80.07202 | 24000 ft | 519 kts | 56° |
| 2026-05-07 01:50 | 34.60959 | -80.03373 | 23981 ft | 519 kts | 57° |
| 2026-05-07 01:50 | 34.62689 | -79.99600 | 23980 ft | 520 kts | 57° |
| 2026-05-07 01:50 | 34.64448 | -79.95760 | 23982 ft | 520 kts | 57° |
| 2026-05-07 01:50 | 34.66198 | -79.91932 | 23981 ft | 520 kts | 57° |
| 2026-05-07 01:51 | 34.68110 | -79.88230 | 23979 ft | 513 kts | 46° |
| 2026-05-07 01:51 | 34.70580 | -79.85183 | 23981 ft | 501 kts | 32° |
| 2026-05-07 01:51 | 34.73371 | -79.82672 | 23983 ft | 499 kts | 30° |
| 2026-05-07 01:51 | 34.76181 | -79.80195 | 23989 ft | 499 kts | 30° |
| 2026-05-07 01:52 | 34.78995 | -79.77724 | 23987 ft | 497 kts | 30° |
| 2026-05-07 01:52 | 34.81793 | -79.75266 | 24011 ft | 496 kts | 30° |
| 2026-05-07 01:52 | 34.84598 | -79.72798 | 23979 ft | 497 kts | 30° |
| 2026-05-07 01:52 | 34.86448 | -79.71165 | 23995 ft | 497 kts | 30° |
| 2026-05-07 01:53 | 34.89299 | -79.68816 | 23985 ft | 490 kts | 22° |
| 2026-05-07 01:53 | 34.92380 | -79.67138 | 23973 ft | 484 kts | 15° |
| 2026-05-07 01:53 | 34.95497 | -79.65586 | 23966 ft | 484 kts | 15° |
| 2026-05-07 01:53 | 34.98618 | -79.64039 | 23968 ft | 484 kts | 15° |
| 2026-05-07 01:54 | 35.01719 | -79.62502 | 23690 ft | 478 kts | 15° |
| 2026-05-07 01:54 | 35.04783 | -79.60982 | 22857 ft | 473 kts | 15° |
| 2026-05-07 01:54 | 35.07825 | -79.59475 | 22063 ft | 469 kts | 15° |
| 2026-05-07 01:54 | 35.10828 | -79.57983 | 21315 ft | 464 kts | 15° |
| 2026-05-07 01:55 | 35.13803 | -79.56501 | 20623 ft | 459 kts | 15° |
| 2026-05-07 01:55 | 35.16747 | -79.55034 | 19986 ft | 454 kts | 15° |
| 2026-05-07 01:55 | 35.19660 | -79.53582 | 19349 ft | 450 kts | 15° |
| 2026-05-07 01:55 | 35.22545 | -79.52144 | 18737 ft | 446 kts | 15° |
| 2026-05-07 01:56 | 35.25403 | -79.50720 | 18106 ft | 441 kts | 15° |
| 2026-05-07 01:56 | 35.28230 | -79.49311 | 17417 ft | 438 kts | 15° |
| 2026-05-07 01:56 | 35.31040 | -79.47906 | 16775 ft | 435 kts | 16° |
| 2026-05-07 01:56 | 35.33837 | -79.46492 | 16119 ft | 434 kts | 18° |
| 2026-05-07 01:57 | 35.36437 | -79.44580 | 15514 ft | 441 kts | 33° |
| 2026-05-07 01:57 | 35.38815 | -79.42214 | 14891 ft | 439 kts | 35° |
| 2026-05-07 01:57 | 35.41164 | -79.39848 | 14349 ft | 435 kts | 35° |
| 2026-05-07 01:57 | 35.43491 | -79.37496 | 13796 ft | 432 kts | 35° |
| 2026-05-07 01:58 | 35.45797 | -79.35166 | 13183 ft | 428 kts | 35° |
| 2026-05-07 01:58 | 35.48089 | -79.32852 | 12552 ft | 425 kts | 35° |
| 2026-05-07 01:58 | 35.50360 | -79.30556 | 11924 ft | 421 kts | 36° |
| 2026-05-07 01:58 | 35.52610 | -79.28278 | 11310 ft | 418 kts | 36° |
| 2026-05-07 01:59 | 35.54848 | -79.26012 | 11035 ft | 413 kts | 36° |
| 2026-05-07 01:59 | 35.57021 | -79.23813 | 10969 ft | 394 kts | 36° |
| 2026-05-07 01:59 | 35.59072 | -79.21727 | 10989 ft | 374 kts | 35° |
| 2026-05-07 01:59 | 35.61040 | -79.19726 | 10989 ft | 363 kts | 35° |
| 2026-05-07 02:00 | 35.62929 | -79.17744 | 10990 ft | 362 kts | 41° |
| 2026-05-07 02:00 | 35.64550 | -79.15346 | 10990 ft | 366 kts | 50° |
| 2026-05-07 02:00 | 35.66056 | -79.12842 | 10766 ft | 363 kts | 50° |
| 2026-05-07 02:00 | 35.67548 | -79.10342 | 10331 ft | 362 kts | 51° |
| 2026-05-07 02:01 | 35.69030 | -79.07852 | 9919 ft | 359 kts | 51° |
| 2026-05-07 02:01 | 35.70502 | -79.05379 | 9477 ft | 357 kts | 51° |
| 2026-05-07 02:01 | 35.71966 | -79.02919 | 9019 ft | 355 kts | 50° |
| 2026-05-07 02:01 | 35.73418 | -79.00483 | 8594 ft | 352 kts | 50° |
| 2026-05-07 02:02 | 35.74858 | -78.98067 | 8185 ft | 349 kts | 51° |
| 2026-05-07 02:02 | 35.76292 | -78.95659 | 7972 ft | 348 kts | 51° |
| 2026-05-07 02:02 | 35.77719 | -78.93264 | 7974 ft | 342 kts | 52° |
| 2026-05-07 02:02 | 35.78847 | -78.90748 | 7882 ft | 331 kts | 68° |
| 2026-05-07 02:03 | 35.79389 | -78.88048 | 7756 ft | 320 kts | 83° |
| 2026-05-07 02:03 | 35.79642 | -78.85378 | 7633 ft | 308 kts | 83° |
| 2026-05-07 02:03 | 35.79889 | -78.82806 | 7514 ft | 296 kts | 83° |
| 2026-05-07 02:03 | 35.80131 | -78.80334 | 7373 ft | 286 kts | 83° |
| 2026-05-07 02:04 | 35.80367 | -78.77924 | 7110 ft | 281 kts | 83° |
| 2026-05-07 02:04 | 35.80599 | -78.75546 | 6936 ft | 280 kts | 82° |
| 2026-05-07 02:04 | 35.80957 | -78.73221 | 6722 ft | 271 kts | 69° |
| 2026-05-07 02:04 | 35.81752 | -78.71202 | 6493 ft | 263 kts | 51° |
| 2026-05-07 02:05 | 35.82933 | -78.69529 | 6197 ft | 257 kts | 39° |
| 2026-05-07 02:05 | 35.84205 | -78.67985 | 5889 ft | 255 kts | 39° |
| 2026-05-07 02:05 | 35.85468 | -78.66456 | 5592 ft | 254 kts | 39° |
| 2026-05-07 02:05 | 35.86721 | -78.64931 | 5306 ft | 253 kts | 40° |
| 2026-05-07 02:06 | 35.87969 | -78.63410 | 5042 ft | 251 kts | 40° |
| 2026-05-07 02:06 | 35.89205 | -78.61908 | 4954 ft | 250 kts | 40° |
| 2026-05-07 02:06 | 35.90443 | -78.60392 | 4977 ft | 251 kts | 40° |
| 2026-05-07 02:06 | 35.91680 | -78.58875 | 4980 ft | 251 kts | 40° |
| 2026-05-07 02:07 | 35.92924 | -78.57358 | 4979 ft | 252 kts | 40° |
| 2026-05-07 02:07 | 35.95416 | -78.54324 | 4986 ft | 252 kts | 41° |
| 2026-05-07 02:07 | 35.96664 | -78.52837 | 4847 ft | 250 kts | 33° |
| 2026-05-07 02:08 | 35.98180 | -78.51988 | 4588 ft | 233 kts | 359° |
| 2026-05-07 02:08 | 35.99669 | -78.52258 | 4464 ft | 204 kts | 323° |
| 2026-05-07 02:08 | 36.00765 | -78.53203 | 4371 ft | 184 kts | 312° |
| 2026-05-07 02:08 | 36.01724 | -78.54221 | 4073 ft | 180 kts | 310° |
| 2026-05-07 02:09 | 36.02669 | -78.55252 | 3725 ft | 181 kts | 309° |
| 2026-05-07 02:09 | 36.03313 | -78.56511 | 3402 ft | 171 kts | 281° |
| 2026-05-07 02:09 | 36.03398 | -78.57939 | 3090 ft | 166 kts | 257° |
| 2026-05-07 02:09 | 36.02958 | -78.59236 | 2983 ft | 166 kts | 234° |
| 2026-05-07 02:10 | 36.02163 | -78.60284 | 2977 ft | 168 kts | 227° |
| 2026-05-07 02:10 | 36.01337 | -78.61309 | 2981 ft | 169 kts | 227° |
| 2026-05-07 02:10 | 36.00508 | -78.62339 | 2978 ft | 169 kts | 227° |
| 2026-05-07 02:10 | 35.99680 | -78.63367 | 2975 ft | 169 kts | 227° |
| 2026-05-07 02:11 | 35.98854 | -78.64391 | 2977 ft | 168 kts | 227° |
| 2026-05-07 02:11 | 35.98024 | -78.65422 | 2980 ft | 169 kts | 227° |
| 2026-05-07 02:11 | 35.97192 | -78.66453 | 2881 ft | 169 kts | 227° |
| 2026-05-07 02:11 | 35.96363 | -78.67481 | 2702 ft | 169 kts | 226° |
| 2026-05-07 02:12 | 35.95544 | -78.68497 | 2501 ft | 169 kts | 226° |
| 2026-05-07 02:12 | 35.94718 | -78.69520 | 2284 ft | 168 kts | 226° |
| 2026-05-07 02:12 | 35.93894 | -78.70541 | 2066 ft | 167 kts | 226° |
| 2026-05-07 02:12 | 35.93105 | -78.71517 | 1860 ft | 150 kts | 226° |
| 2026-05-07 02:13 | 35.92413 | -78.72388 | 1641 ft | 137 kts | 227° |
| 2026-05-07 02:13 | 35.91719 | -78.73304 | 1416 ft | 146 kts | 226° |
| 2026-05-07 02:13 | 35.90983 | -78.74143 | 1172 ft | 143 kts | 225° |
| 2026-05-07 02:13 | 35.90264 | -78.75055 | 998 ft | 151 kts | 226° |
| 2026-05-07 02:14 | 35.89521 | -78.75972 | 813 ft | 152 kts | 223° |
| 2026-05-07 02:14 | 35.88770 | -78.76891 | 714 ft | 151 kts | 225° |
| 2026-05-07 02:14 | 35.88053 | -78.77780 | 516 ft | 140 kts | 224° |
| 2026-05-07 02:14 | 35.87409 | -78.78570 | 420 ft | 115 kts | 224° |
| 2026-05-07 02:15 | 35.87007 | -78.79060 | 430 ft | 63 kts | 225° |
| 2026-05-07 02:15 | 35.86794 | -78.79357 | 425 ft | 27 kts | 254° |
| 2026-05-07 02:15 | 35.86807 | -78.79476 | 425 ft | 10 kts | 342° |
| 2026-05-07 02:15 | 35.86863 | -78.79434 | 428 ft | 10 kts | 44° |
| 2026-05-07 02:16 | 35.86921 | -78.79360 | 432 ft | 19 kts | 44° |
| 2026-05-07 02:16 | 35.87034 | -78.79221 | 428 ft | 24 kts | 46° |
| 2026-05-07 02:16 | 35.87156 | -78.79073 | 432 ft | 24 kts | 43° |
| 2026-05-07 02:16 | 35.87272 | -78.78929 | 427 ft | 24 kts | 45° |
| 2026-05-07 02:17 | 35.87391 | -78.78783 | 435 ft | 24 kts | 45° |
| 2026-05-07 02:17 | 35.87506 | -78.78639 | 425 ft | 22 kts | 45° |
| 2026-05-07 02:17 | 35.87617 | -78.78505 | 433 ft | 17 kts | 43° |
| 2026-05-07 02:17 | 35.87651 | -78.78465 | 421 ft | 7 kts | 44° |
| 2026-05-07 02:18 | 35.87688 | -78.78420 | 423 ft | 8 kts | 45° |
| 2026-05-07 02:18 | 35.87734 | -78.78414 | 426 ft | 7 kts | 333° |
| 2026-05-07 02:18 | 35.87798 | -78.78486 | 430 ft | 18 kts | 315° |
| 2026-05-07 02:18 | 35.87889 | -78.78598 | 427 ft | 19 kts | 315° |
| 2026-05-07 02:19 | 35.87990 | -78.78719 | 425 ft | 21 kts | 315° |
| 2026-05-07 02:19 | 35.88098 | -78.78851 | 420 ft | 23 kts | 315° |
| 2026-05-07 02:19 | 35.88156 | -78.78922 | 419 ft | 4 kts | 315° |
| 2026-05-07 02:19 | 35.88159 | -78.78925 | 420 ft | 3 kts | 315° |
| 2026-05-07 02:20 | 35.88205 | -78.78984 | 425 ft | 3 kts | 311° |
| 2026-05-07 02:20 | 35.88220 | -78.79023 | 425 ft | 20 kts | 283° |
| 2026-05-07 02:20 | 35.88138 | -78.79151 | 427 ft | 20 kts | 225° |
| 2026-05-07 02:20 | 35.88039 | -78.79270 | 428 ft | 21 kts | 224° |
| 2026-05-07 02:21 | 35.87941 | -78.79393 | 434 ft | 16 kts | 222° |
| 2026-05-07 02:21 | 35.87846 | -78.79369 | 425 ft | 13 kts | 155° |
| 2026-05-07 02:21 | 35.87811 | -78.79348 | 423 ft | 0 kts | 137° |